sensor_id;sensor_type;location;lat;lon;timestamp;P1;durP1;ratioP1;P2;durP2;ratioP2
55879;SDS011;41802;51.564;-1.838;2023-01-26T00:00:56;14.00;;;1.73;;
55879;SDS011;41802;51.564;-1.838;2023-01-26T00:03:30;18.50;;;2.07;;
55879;SDS011;41802;51.564;-1.838;2023-01-26T00:06:01;13.93;;;1.65;;
55879;SDS011;41802;51.564;-1.838;2023-01-26T00:08:29;14.50;;;1.85;;
55879;SDS011;41802;51.564;-1.838;2023-01-26T00:10:57;22.42;;;1.90;;
55879;SDS011;41802;51.564;-1.838;2023-01-26T00:13:29;14.45;;;1.92;;
55879;SDS011;41802;51.564;-1.838;2023-01-26T00:15:57;15.37;;;1.30;;
55879;SDS011;41802;51.564;-1.838;2023-01-26T00:18:24;15.55;;;2.15;;
55879;SDS011;41802;51.564;-1.838;2023-01-26T00:20:55;10.80;;;1.38;;
55879;SDS011;41802;51.564;-1.838;2023-01-26T00:23:23;9.77;;;1.63;;
55879;SDS011;41802;51.564;-1.838;2023-01-26T00:25:51;14.15;;;1.50;;
55879;SDS011;41802;51.564;-1.838;2023-01-26T00:28:19;13.77;;;1.70;;
55879;SDS011;41802;51.564;-1.838;2023-01-26T00:30:46;14.15;;;1.30;;
55879;SDS011;41802;51.564;-1.838;2023-01-26T00:33:19;16.08;;;1.60;;
55879;SDS011;41802;51.564;-1.838;2023-01-26T00:35:52;13.10;;;2.03;;
55879;SDS011;41802;51.564;-1.838;2023-01-26T00:38:22;10.77;;;1.50;;
55879;SDS011;41802;51.564;-1.838;2023-01-26T00:40:50;10.53;;;1.03;;
55879;SDS011;41802;51.564;-1.838;2023-01-26T00:43:18;12.52;;;1.05;;
55879;SDS011;41802;51.564;-1.838;2023-01-26T00:45:46;7.30;;;0.90;;
55879;SDS011;41802;51.564;-1.838;2023-01-26T00:48:14;16.00;;;1.30;;
55879;SDS011;41802;51.564;-1.838;2023-01-26T00:50:42;20.55;;;1.60;;
55879;SDS011;41802;51.564;-1.838;2023-01-26T00:53:09;10.03;;;1.03;;
55879;SDS011;41802;51.564;-1.838;2023-01-26T00:55:38;11.38;;;1.17;;
55879;SDS011;41802;51.564;-1.838;2023-01-26T00:58:06;16.08;;;1.27;;
55879;SDS011;41802;51.564;-1.838;2023-01-26T01:00:35;8.95;;;1.05;;
55879;SDS011;41802;51.564;-1.838;2023-01-26T01:03:03;10.82;;;0.98;;
55879;SDS011;41802;51.564;-1.838;2023-01-26T01:05:31;9.57;;;1.13;;
55879;SDS011;41802;51.564;-1.838;2023-01-26T01:07:59;11.20;;;1.23;;
55879;SDS011;41802;51.564;-1.838;2023-01-26T01:10:27;10.52;;;1.27;;
55879;SDS011;41802;51.564;-1.838;2023-01-26T01:12:56;14.10;;;0.98;;
55879;SDS011;41802;51.564;-1.838;2023-01-26T01:15:24;18.80;;;1.20;;
55879;SDS011;41802;51.564;-1.838;2023-01-26T01:17:52;13.87;;;0.90;;
55879;SDS011;41802;51.564;-1.838;2023-01-26T01:20:20;9.45;;;0.88;;
55879;SDS011;41802;51.564;-1.838;2023-01-26T01:22:48;12.32;;;1.00;;
55879;SDS011;41802;51.564;-1.838;2023-01-26T01:25:17;11.48;;;1.70;;
55879;SDS011;41802;51.564;-1.838;2023-01-26T01:27:45;11.63;;;1.42;;
55879;SDS011;41802;51.564;-1.838;2023-01-26T01:30:14;10.33;;;1.60;;
55879;SDS011;41802;51.564;-1.838;2023-01-26T01:32:42;10.52;;;1.25;;
55879;SDS011;41802;51.564;-1.838;2023-01-26T01:35:11;15.88;;;1.42;;
55879;SDS011;41802;51.564;-1.838;2023-01-26T01:37:38;7.80;;;1.10;;
55879;SDS011;41802;51.564;-1.838;2023-01-26T01:40:08;10.07;;;1.15;;
55879;SDS011;41802;51.564;-1.838;2023-01-26T01:42:44;13.40;;;1.13;;
55879;SDS011;41802;51.564;-1.838;2023-01-26T01:45:34;6.43;;;1.25;;
55879;SDS011;41802;51.564;-1.838;2023-01-26T01:48:02;8.25;;;0.75;;
55879;SDS011;41802;51.564;-1.838;2023-01-26T01:50:32;10.60;;;1.10;;
55879;SDS011;41802;51.564;-1.838;2023-01-26T01:53:01;12.82;;;1.15;;
55879;SDS011;41802;51.564;-1.838;2023-01-26T01:55:29;16.00;;;1.53;;
55879;SDS011;41802;51.564;-1.838;2023-01-26T01:57:58;13.30;;;0.90;;
55879;SDS011;41802;51.564;-1.838;2023-01-26T02:00:28;13.60;;;1.70;;
55879;SDS011;41802;51.564;-1.838;2023-01-26T02:02:58;12.15;;;1.15;;
55879;SDS011;41802;51.564;-1.838;2023-01-26T02:05:42;19.25;;;0.90;;
55879;SDS011;41802;51.564;-1.838;2023-01-26T02:08:12;12.57;;;1.10;;
55879;SDS011;41802;51.564;-1.838;2023-01-26T02:10:41;12.32;;;1.23;;
55879;SDS011;41802;51.564;-1.838;2023-01-26T02:13:12;11.10;;;0.90;;
55879;SDS011;41802;51.564;-1.838;2023-01-26T02:15:39;15.63;;;1.15;;
55879;SDS011;41802;51.564;-1.838;2023-01-26T02:18:09;9.95;;;1.52;;
55879;SDS011;41802;51.564;-1.838;2023-01-26T02:20:39;8.73;;;0.87;;
55879;SDS011;41802;51.564;-1.838;2023-01-26T02:23:12;5.93;;;0.50;;
55879;SDS011;41802;51.564;-1.838;2023-01-26T02:25:46;17.50;;;1.17;;
55879;SDS011;41802;51.564;-1.838;2023-01-26T02:28:20;12.40;;;1.15;;
55879;SDS011;41802;51.564;-1.838;2023-01-26T02:30:53;9.23;;;1.00;;
55879;SDS011;41802;51.564;-1.838;2023-01-26T02:33:22;15.63;;;1.30;;
55879;SDS011;41802;51.564;-1.838;2023-01-26T02:35:50;14.27;;;1.20;;
55879;SDS011;41802;51.564;-1.838;2023-01-26T02:38:19;10.88;;;0.98;;
55879;SDS011;41802;51.564;-1.838;2023-01-26T02:40:49;10.00;;;0.73;;
55879;SDS011;41802;51.564;-1.838;2023-01-26T02:43:20;8.98;;;1.42;;
55879;SDS011;41802;51.564;-1.838;2023-01-26T02:45:49;8.40;;;0.93;;
55879;SDS011;41802;51.564;-1.838;2023-01-26T02:48:17;14.98;;;1.65;;
55879;SDS011;41802;51.564;-1.838;2023-01-26T02:51:05;6.57;;;1.02;;
55879;SDS011;41802;51.564;-1.838;2023-01-26T02:53:32;16.48;;;1.65;;
55879;SDS011;41802;51.564;-1.838;2023-01-26T02:56:00;15.48;;;1.25;;
55879;SDS011;41802;51.564;-1.838;2023-01-26T02:58:28;13.93;;;1.67;;
55879;SDS011;41802;51.564;-1.838;2023-01-26T03:00:55;18.25;;;1.38;;
55879;SDS011;41802;51.564;-1.838;2023-01-26T03:03:24;17.10;;;1.90;;
55879;SDS011;41802;51.564;-1.838;2023-01-26T03:06:08;9.90;;;1.40;;
55879;SDS011;41802;51.564;-1.838;2023-01-26T03:08:36;14.93;;;1.25;;
55879;SDS011;41802;51.564;-1.838;2023-01-26T03:11:04;14.53;;;1.37;;
55879;SDS011;41802;51.564;-1.838;2023-01-26T03:13:34;13.15;;;1.25;;
55879;SDS011;41802;51.564;-1.838;2023-01-26T03:16:05;10.35;;;1.30;;
55879;SDS011;41802;51.564;-1.838;2023-01-26T03:18:33;9.80;;;0.80;;
55879;SDS011;41802;51.564;-1.838;2023-01-26T03:21:19;16.02;;;1.40;;
55879;SDS011;41802;51.564;-1.838;2023-01-26T03:24:04;13.03;;;1.57;;
55879;SDS011;41802;51.564;-1.838;2023-01-26T03:26:50;17.33;;;1.63;;
55879;SDS011;41802;51.564;-1.838;2023-01-26T03:29:37;15.93;;;1.33;;
55879;SDS011;41802;51.564;-1.838;2023-01-26T03:32:05;15.25;;;1.77;;
55879;SDS011;41802;51.564;-1.838;2023-01-26T03:34:33;22.02;;;1.60;;
55879;SDS011;41802;51.564;-1.838;2023-01-26T03:37:00;19.53;;;1.50;;
55879;SDS011;41802;51.564;-1.838;2023-01-26T03:39:28;17.70;;;2.20;;
55879;SDS011;41802;51.564;-1.838;2023-01-26T03:42:13;15.02;;;1.50;;
55879;SDS011;41802;51.564;-1.838;2023-01-26T03:45:00;18.77;;;2.88;;
55879;SDS011;41802;51.564;-1.838;2023-01-26T03:47:45;13.52;;;1.85;;
55879;SDS011;41802;51.564;-1.838;2023-01-26T03:50:31;12.63;;;1.83;;
55879;SDS011;41802;51.564;-1.838;2023-01-26T03:53:17;12.20;;;1.65;;
55879;SDS011;41802;51.564;-1.838;2023-01-26T03:56:04;16.75;;;2.45;;
55879;SDS011;41802;51.564;-1.838;2023-01-26T03:58:48;17.98;;;2.33;;
55879;SDS011;41802;51.564;-1.838;2023-01-26T04:01:18;14.02;;;2.60;;
55879;SDS011;41802;51.564;-1.838;2023-01-26T04:03:46;15.10;;;2.13;;
55879;SDS011;41802;51.564;-1.838;2023-01-26T04:06:32;14.20;;;1.80;;
55879;SDS011;41802;51.564;-1.838;2023-01-26T04:09:18;24.42;;;3.28;;
55879;SDS011;41802;51.564;-1.838;2023-01-26T04:11:46;17.92;;;2.50;;
55879;SDS011;41802;51.564;-1.838;2023-01-26T04:14:14;17.58;;;2.47;;
55879;SDS011;41802;51.564;-1.838;2023-01-26T04:17:16;16.37;;;2.77;;
55879;SDS011;41802;51.564;-1.838;2023-01-26T04:20:01;19.70;;;2.88;;
55879;SDS011;41802;51.564;-1.838;2023-01-26T04:22:47;17.98;;;2.72;;
55879;SDS011;41802;51.564;-1.838;2023-01-26T04:25:15;13.60;;;2.53;;
55879;SDS011;41802;51.564;-1.838;2023-01-26T04:27:43;14.73;;;2.58;;
55879;SDS011;41802;51.564;-1.838;2023-01-26T04:30:12;19.83;;;3.83;;
55879;SDS011;41802;51.564;-1.838;2023-01-26T04:32:42;14.10;;;3.17;;
55879;SDS011;41802;51.564;-1.838;2023-01-26T04:35:11;13.68;;;3.30;;
55879;SDS011;41802;51.564;-1.838;2023-01-26T04:37:39;18.20;;;2.75;;
55879;SDS011;41802;51.564;-1.838;2023-01-26T04:40:07;17.63;;;2.63;;
55879;SDS011;41802;51.564;-1.838;2023-01-26T04:42:35;12.23;;;2.90;;
55879;SDS011;41802;51.564;-1.838;2023-01-26T04:45:03;11.73;;;2.35;;
55879;SDS011;41802;51.564;-1.838;2023-01-26T04:47:31;13.98;;;2.58;;
55879;SDS011;41802;51.564;-1.838;2023-01-26T04:50:00;17.95;;;3.03;;
55879;SDS011;41802;51.564;-1.838;2023-01-26T04:52:27;19.48;;;2.72;;
55879;SDS011;41802;51.564;-1.838;2023-01-26T04:54:55;13.47;;;2.57;;
55879;SDS011;41802;51.564;-1.838;2023-01-26T04:57:23;13.57;;;2.85;;
55879;SDS011;41802;51.564;-1.838;2023-01-26T04:59:51;17.77;;;2.63;;
55879;SDS011;41802;51.564;-1.838;2023-01-26T05:02:19;14.60;;;2.50;;
55879;SDS011;41802;51.564;-1.838;2023-01-26T05:04:46;14.38;;;3.30;;
55879;SDS011;41802;51.564;-1.838;2023-01-26T05:07:16;16.67;;;3.17;;
55879;SDS011;41802;51.564;-1.838;2023-01-26T05:09:43;14.48;;;2.70;;
55879;SDS011;41802;51.564;-1.838;2023-01-26T05:12:11;14.63;;;2.58;;
55879;SDS011;41802;51.564;-1.838;2023-01-26T05:14:56;14.93;;;2.75;;
55879;SDS011;41802;51.564;-1.838;2023-01-26T05:17:24;19.33;;;2.47;;
55879;SDS011;41802;51.564;-1.838;2023-01-26T05:19:51;11.47;;;2.53;;
55879;SDS011;41802;51.564;-1.838;2023-01-26T05:22:20;15.75;;;2.65;;
55879;SDS011;41802;51.564;-1.838;2023-01-26T05:24:48;21.08;;;3.08;;
55879;SDS011;41802;51.564;-1.838;2023-01-26T05:27:16;13.98;;;2.70;;
55879;SDS011;41802;51.564;-1.838;2023-01-26T05:29:50;14.82;;;2.38;;
55879;SDS011;41802;51.564;-1.838;2023-01-26T05:32:18;15.40;;;3.33;;
55879;SDS011;41802;51.564;-1.838;2023-01-26T05:34:47;14.38;;;2.40;;
55879;SDS011;41802;51.564;-1.838;2023-01-26T05:37:15;10.95;;;1.95;;
55879;SDS011;41802;51.564;-1.838;2023-01-26T05:39:44;11.48;;;2.63;;
55879;SDS011;41802;51.564;-1.838;2023-01-26T05:42:12;11.18;;;1.90;;
55879;SDS011;41802;51.564;-1.838;2023-01-26T05:44:40;14.37;;;2.40;;
55879;SDS011;41802;51.564;-1.838;2023-01-26T05:47:11;13.55;;;2.40;;
55879;SDS011;41802;51.564;-1.838;2023-01-26T05:49:39;11.27;;;2.13;;
55879;SDS011;41802;51.564;-1.838;2023-01-26T05:52:08;14.52;;;1.77;;
55879;SDS011;41802;51.564;-1.838;2023-01-26T05:54:36;12.77;;;1.50;;
55879;SDS011;41802;51.564;-1.838;2023-01-26T05:57:05;12.13;;;2.37;;
55879;SDS011;41802;51.564;-1.838;2023-01-26T05:59:33;12.55;;;1.65;;
55879;SDS011;41802;51.564;-1.838;2023-01-26T06:02:01;9.27;;;1.80;;
55879;SDS011;41802;51.564;-1.838;2023-01-26T06:04:29;12.15;;;1.77;;
55879;SDS011;41802;51.564;-1.838;2023-01-26T06:06:57;13.63;;;2.13;;
55879;SDS011;41802;51.564;-1.838;2023-01-26T06:09:25;9.73;;;1.43;;
55879;SDS011;41802;51.564;-1.838;2023-01-26T06:11:53;12.55;;;2.17;;
55879;SDS011;41802;51.564;-1.838;2023-01-26T06:14:22;9.85;;;1.63;;
55879;SDS011;41802;51.564;-1.838;2023-01-26T06:16:50;7.10;;;1.50;;
55879;SDS011;41802;51.564;-1.838;2023-01-26T06:19:19;15.95;;;2.13;;
55879;SDS011;41802;51.564;-1.838;2023-01-26T06:21:47;8.90;;;1.97;;
55879;SDS011;41802;51.564;-1.838;2023-01-26T06:24:15;9.13;;;1.90;;
55879;SDS011;41802;51.564;-1.838;2023-01-26T06:26:43;16.42;;;2.10;;
55879;SDS011;41802;51.564;-1.838;2023-01-26T06:29:11;14.63;;;1.77;;
55879;SDS011;41802;51.564;-1.838;2023-01-26T06:31:43;11.00;;;1.50;;
55879;SDS011;41802;51.564;-1.838;2023-01-26T06:34:14;11.93;;;1.67;;
55879;SDS011;41802;51.564;-1.838;2023-01-26T06:36:41;12.52;;;1.75;;
55879;SDS011;41802;51.564;-1.838;2023-01-26T06:39:10;12.05;;;1.98;;
55879;SDS011;41802;51.564;-1.838;2023-01-26T06:41:38;9.18;;;1.73;;
55879;SDS011;41802;51.564;-1.838;2023-01-26T06:44:07;15.00;;;2.10;;
55879;SDS011;41802;51.564;-1.838;2023-01-26T06:46:35;11.37;;;1.77;;
55879;SDS011;41802;51.564;-1.838;2023-01-26T06:49:04;9.02;;;2.05;;
55879;SDS011;41802;51.564;-1.838;2023-01-26T06:51:40;13.82;;;1.80;;
55879;SDS011;41802;51.564;-1.838;2023-01-26T06:54:10;14.38;;;1.80;;
55879;SDS011;41802;51.564;-1.838;2023-01-26T06:56:38;10.02;;;2.30;;
55879;SDS011;41802;51.564;-1.838;2023-01-26T06:59:06;11.67;;;2.00;;
55879;SDS011;41802;51.564;-1.838;2023-01-26T07:01:36;11.20;;;1.77;;
55879;SDS011;41802;51.564;-1.838;2023-01-26T07:04:07;12.20;;;2.30;;
55879;SDS011;41802;51.564;-1.838;2023-01-26T07:06:34;9.95;;;1.88;;
55879;SDS011;41802;51.564;-1.838;2023-01-26T07:09:06;13.45;;;2.00;;
55879;SDS011;41802;51.564;-1.838;2023-01-26T07:11:34;14.60;;;1.67;;
55879;SDS011;41802;51.564;-1.838;2023-01-26T07:14:01;15.27;;;2.08;;
55879;SDS011;41802;51.564;-1.838;2023-01-26T07:16:30;9.48;;;1.85;;
55879;SDS011;41802;51.564;-1.838;2023-01-26T07:18:59;15.80;;;1.98;;
55879;SDS011;41802;51.564;-1.838;2023-01-26T07:21:28;12.30;;;2.00;;
55879;SDS011;41802;51.564;-1.838;2023-01-26T07:23:56;9.73;;;1.90;;
55879;SDS011;41802;51.564;-1.838;2023-01-26T07:26:23;14.82;;;2.40;;
55879;SDS011;41802;51.564;-1.838;2023-01-26T07:28:51;15.57;;;2.83;;
55879;SDS011;41802;51.564;-1.838;2023-01-26T07:31:19;12.10;;;2.05;;
55879;SDS011;41802;51.564;-1.838;2023-01-26T07:33:46;11.82;;;2.20;;
55879;SDS011;41802;51.564;-1.838;2023-01-26T07:36:14;11.90;;;2.63;;
55879;SDS011;41802;51.564;-1.838;2023-01-26T07:38:44;10.95;;;1.85;;
55879;SDS011;41802;51.564;-1.838;2023-01-26T07:41:12;15.55;;;2.58;;
55879;SDS011;41802;51.564;-1.838;2023-01-26T07:43:39;9.65;;;1.73;;
55879;SDS011;41802;51.564;-1.838;2023-01-26T07:46:08;11.85;;;2.35;;
55879;SDS011;41802;51.564;-1.838;2023-01-26T07:48:37;14.00;;;2.97;;
55879;SDS011;41802;51.564;-1.838;2023-01-26T07:51:06;15.35;;;2.85;;
55879;SDS011;41802;51.564;-1.838;2023-01-26T07:53:35;10.35;;;2.50;;
55879;SDS011;41802;51.564;-1.838;2023-01-26T07:56:07;12.82;;;2.53;;
55879;SDS011;41802;51.564;-1.838;2023-01-26T07:58:35;13.00;;;2.80;;
55879;SDS011;41802;51.564;-1.838;2023-01-26T08:01:07;9.47;;;2.97;;
55879;SDS011;41802;51.564;-1.838;2023-01-26T08:03:35;13.45;;;3.15;;
55879;SDS011;41802;51.564;-1.838;2023-01-26T08:06:03;13.18;;;3.13;;
55879;SDS011;41802;51.564;-1.838;2023-01-26T08:08:31;12.15;;;2.92;;
55879;SDS011;41802;51.564;-1.838;2023-01-26T08:10:59;14.82;;;2.47;;
55879;SDS011;41802;51.564;-1.838;2023-01-26T08:13:29;10.87;;;3.00;;
55879;SDS011;41802;51.564;-1.838;2023-01-26T08:16:02;13.02;;;3.60;;
55879;SDS011;41802;51.564;-1.838;2023-01-26T08:18:30;16.75;;;3.20;;
55879;SDS011;41802;51.564;-1.838;2023-01-26T08:20:58;14.30;;;3.80;;
55879;SDS011;41802;51.564;-1.838;2023-01-26T08:23:26;16.48;;;3.88;;
55879;SDS011;41802;51.564;-1.838;2023-01-26T08:25:53;13.07;;;2.93;;
55879;SDS011;41802;51.564;-1.838;2023-01-26T08:28:21;15.93;;;3.75;;
55879;SDS011;41802;51.564;-1.838;2023-01-26T08:30:50;20.17;;;4.32;;
55879;SDS011;41802;51.564;-1.838;2023-01-26T08:33:18;14.57;;;3.92;;
55879;SDS011;41802;51.564;-1.838;2023-01-26T08:35:46;16.45;;;3.75;;
55879;SDS011;41802;51.564;-1.838;2023-01-26T08:38:15;19.53;;;4.43;;
55879;SDS011;41802;51.564;-1.838;2023-01-26T08:40:44;16.08;;;4.03;;
55879;SDS011;41802;51.564;-1.838;2023-01-26T08:43:17;16.08;;;3.72;;
55879;SDS011;41802;51.564;-1.838;2023-01-26T08:45:45;16.05;;;3.80;;
55879;SDS011;41802;51.564;-1.838;2023-01-26T08:48:14;18.75;;;4.82;;
55879;SDS011;41802;51.564;-1.838;2023-01-26T08:50:43;12.63;;;3.67;;
55879;SDS011;41802;51.564;-1.838;2023-01-26T08:53:11;15.20;;;3.63;;
55879;SDS011;41802;51.564;-1.838;2023-01-26T08:55:39;13.43;;;3.97;;
55879;SDS011;41802;51.564;-1.838;2023-01-26T08:58:10;12.20;;;3.20;;
55879;SDS011;41802;51.564;-1.838;2023-01-26T09:00:38;11.45;;;3.22;;
55879;SDS011;41802;51.564;-1.838;2023-01-26T09:03:06;13.77;;;2.80;;
55879;SDS011;41802;51.564;-1.838;2023-01-26T09:05:35;13.75;;;3.45;;
55879;SDS011;41802;51.564;-1.838;2023-01-26T09:08:03;15.15;;;3.55;;
55879;SDS011;41802;51.564;-1.838;2023-01-26T09:10:31;13.85;;;3.45;;
55879;SDS011;41802;51.564;-1.838;2023-01-26T09:13:00;11.85;;;3.40;;
55879;SDS011;41802;51.564;-1.838;2023-01-26T09:15:29;9.87;;;3.10;;
55879;SDS011;41802;51.564;-1.838;2023-01-26T09:17:57;14.27;;;2.72;;
55879;SDS011;41802;51.564;-1.838;2023-01-26T09:20:27;11.18;;;3.00;;
55879;SDS011;41802;51.564;-1.838;2023-01-26T09:22:56;10.15;;;2.70;;
55879;SDS011;41802;51.564;-1.838;2023-01-26T09:25:24;12.20;;;3.00;;
55879;SDS011;41802;51.564;-1.838;2023-01-26T09:27:52;13.03;;;2.70;;
55879;SDS011;41802;51.564;-1.838;2023-01-26T09:30:20;14.88;;;3.47;;
55879;SDS011;41802;51.564;-1.838;2023-01-26T09:32:50;15.68;;;3.10;;
55879;SDS011;41802;51.564;-1.838;2023-01-26T09:35:18;10.63;;;2.45;;
55879;SDS011;41802;51.564;-1.838;2023-01-26T09:37:46;11.95;;;2.60;;
55879;SDS011;41802;51.564;-1.838;2023-01-26T09:40:15;10.63;;;2.67;;
55879;SDS011;41802;51.564;-1.838;2023-01-26T09:42:47;11.00;;;2.58;;
55879;SDS011;41802;51.564;-1.838;2023-01-26T09:45:20;13.98;;;2.75;;
55879;SDS011;41802;51.564;-1.838;2023-01-26T09:47:52;13.50;;;2.60;;
55879;SDS011;41802;51.564;-1.838;2023-01-26T09:50:23;10.80;;;2.60;;
55879;SDS011;41802;51.564;-1.838;2023-01-26T09:52:53;13.97;;;2.70;;
55879;SDS011;41802;51.564;-1.838;2023-01-26T09:55:24;11.23;;;2.08;;
55879;SDS011;41802;51.564;-1.838;2023-01-26T09:57:54;10.18;;;2.17;;
55879;SDS011;41802;51.564;-1.838;2023-01-26T10:00:25;12.98;;;1.75;;
55879;SDS011;41802;51.564;-1.838;2023-01-26T10:02:56;13.95;;;1.90;;
55879;SDS011;41802;51.564;-1.838;2023-01-26T10:05:27;10.70;;;1.97;;
55879;SDS011;41802;51.564;-1.838;2023-01-26T10:07:57;7.10;;;1.67;;
55879;SDS011;41802;51.564;-1.838;2023-01-26T10:10:29;11.00;;;1.85;;
55879;SDS011;41802;51.564;-1.838;2023-01-26T10:13:00;13.75;;;2.22;;
55879;SDS011;41802;51.564;-1.838;2023-01-26T10:15:28;11.75;;;2.10;;
55879;SDS011;41802;51.564;-1.838;2023-01-26T10:17:58;10.33;;;2.43;;
55879;SDS011;41802;51.564;-1.838;2023-01-26T10:20:27;9.10;;;2.00;;
55879;SDS011;41802;51.564;-1.838;2023-01-26T10:23:00;13.50;;;2.10;;
55879;SDS011;41802;51.564;-1.838;2023-01-26T10:25:33;12.30;;;2.55;;
55879;SDS011;41802;51.564;-1.838;2023-01-26T10:28:04;14.00;;;2.35;;
55879;SDS011;41802;51.564;-1.838;2023-01-26T10:30:37;16.10;;;3.37;;
55879;SDS011;41802;51.564;-1.838;2023-01-26T10:33:12;13.35;;;2.85;;
55879;SDS011;41802;51.564;-1.838;2023-01-26T10:35:42;10.02;;;2.47;;
55879;SDS011;41802;51.564;-1.838;2023-01-26T10:38:25;13.77;;;2.75;;
55879;SDS011;41802;51.564;-1.838;2023-01-26T10:40:54;12.05;;;2.70;;
55879;SDS011;41802;51.564;-1.838;2023-01-26T10:43:22;11.63;;;2.53;;
55879;SDS011;41802;51.564;-1.838;2023-01-26T10:45:52;12.52;;;3.00;;
55879;SDS011;41802;51.564;-1.838;2023-01-26T10:48:20;9.75;;;2.42;;
55879;SDS011;41802;51.564;-1.838;2023-01-26T10:50:49;11.52;;;2.80;;
55879;SDS011;41802;51.564;-1.838;2023-01-26T10:53:21;8.77;;;2.35;;
55879;SDS011;41802;51.564;-1.838;2023-01-26T10:55:58;17.17;;;2.93;;
55879;SDS011;41802;51.564;-1.838;2023-01-26T10:58:40;11.25;;;2.88;;
55879;SDS011;41802;51.564;-1.838;2023-01-26T11:01:08;12.75;;;3.17;;
55879;SDS011;41802;51.564;-1.838;2023-01-26T11:03:38;13.13;;;2.40;;
55879;SDS011;41802;51.564;-1.838;2023-01-26T11:06:06;11.70;;;2.45;;
55879;SDS011;41802;51.564;-1.838;2023-01-26T11:08:35;8.93;;;2.20;;
55879;SDS011;41802;51.564;-1.838;2023-01-26T11:11:05;11.27;;;2.08;;
55879;SDS011;41802;51.564;-1.838;2023-01-26T11:13:35;13.98;;;2.08;;
55879;SDS011;41802;51.564;-1.838;2023-01-26T11:16:05;13.88;;;1.92;;
55879;SDS011;41802;51.564;-1.838;2023-01-26T11:18:40;10.18;;;2.10;;
55879;SDS011;41802;51.564;-1.838;2023-01-26T11:21:10;11.07;;;1.60;;
55879;SDS011;41802;51.564;-1.838;2023-01-26T11:23:48;9.00;;;1.50;;
55879;SDS011;41802;51.564;-1.838;2023-01-26T11:26:27;11.73;;;1.77;;
55879;SDS011;41802;51.564;-1.838;2023-01-26T11:29:06;11.40;;;2.00;;
55879;SDS011;41802;51.564;-1.838;2023-01-26T11:31:40;10.20;;;1.88;;
55879;SDS011;41802;51.564;-1.838;2023-01-26T11:34:22;13.43;;;1.77;;
55879;SDS011;41802;51.564;-1.838;2023-01-26T11:36:54;10.05;;;1.38;;
55879;SDS011;41802;51.564;-1.838;2023-01-26T11:39:27;9.82;;;1.55;;
55879;SDS011;41802;51.564;-1.838;2023-01-26T11:42:05;8.32;;;1.30;;
55879;SDS011;41802;51.564;-1.838;2023-01-26T11:44:47;13.80;;;1.77;;
55879;SDS011;41802;51.564;-1.838;2023-01-26T11:47:21;8.37;;;1.20;;
55879;SDS011;41802;51.564;-1.838;2023-01-26T11:52:49;9.95;;;1.77;;
55879;SDS011;41802;51.564;-1.838;2023-01-26T11:55:22;10.77;;;2.50;;
55879;SDS011;41802;51.564;-1.838;2023-01-26T11:57:57;7.95;;;1.30;;
55879;SDS011;41802;51.564;-1.838;2023-01-26T12:00:32;11.70;;;2.27;;
55879;SDS011;41802;51.564;-1.838;2023-01-26T12:03:04;11.43;;;2.13;;
55879;SDS011;41802;51.564;-1.838;2023-01-26T12:05:39;11.88;;;1.55;;
55879;SDS011;41802;51.564;-1.838;2023-01-26T12:08:11;9.60;;;1.35;;
55879;SDS011;41802;51.564;-1.838;2023-01-26T12:10:44;10.30;;;1.48;;
55879;SDS011;41802;51.564;-1.838;2023-01-26T12:13:17;8.43;;;1.60;;
55879;SDS011;41802;51.564;-1.838;2023-01-26T12:15:48;9.93;;;1.90;;
55879;SDS011;41802;51.564;-1.838;2023-01-26T12:18:20;9.95;;;1.38;;
55879;SDS011;41802;51.564;-1.838;2023-01-26T12:20:49;12.25;;;1.95;;
55879;SDS011;41802;51.564;-1.838;2023-01-26T12:23:20;15.68;;;2.28;;
55879;SDS011;41802;51.564;-1.838;2023-01-26T12:25:54;11.43;;;1.43;;
55879;SDS011;41802;51.564;-1.838;2023-01-26T12:28:26;12.50;;;2.25;;
55879;SDS011;41802;51.564;-1.838;2023-01-26T12:30:56;22.58;;;2.33;;
55879;SDS011;41802;51.564;-1.838;2023-01-26T12:33:26;12.32;;;1.90;;
55879;SDS011;41802;51.564;-1.838;2023-01-26T12:36:02;7.97;;;1.48;;
55879;SDS011;41802;51.564;-1.838;2023-01-26T12:38:35;11.10;;;1.40;;
55879;SDS011;41802;51.564;-1.838;2023-01-26T12:41:08;8.73;;;1.20;;
55879;SDS011;41802;51.564;-1.838;2023-01-26T12:43:42;9.68;;;1.92;;
55879;SDS011;41802;51.564;-1.838;2023-01-26T12:46:13;6.10;;;1.02;;
55879;SDS011;41802;51.564;-1.838;2023-01-26T12:48:43;10.35;;;1.77;;
55879;SDS011;41802;51.564;-1.838;2023-01-26T12:51:14;10.20;;;1.53;;
55879;SDS011;41802;51.564;-1.838;2023-01-26T12:53:47;15.25;;;1.90;;
55879;SDS011;41802;51.564;-1.838;2023-01-26T12:56:17;8.68;;;1.73;;
55879;SDS011;41802;51.564;-1.838;2023-01-26T12:58:49;8.75;;;1.30;;
55879;SDS011;41802;51.564;-1.838;2023-01-26T13:01:19;10.68;;;1.00;;
55879;SDS011;41802;51.564;-1.838;2023-01-26T13:03:51;9.90;;;1.10;;
55879;SDS011;41802;51.564;-1.838;2023-01-26T13:06:21;13.82;;;1.85;;
55879;SDS011;41802;51.564;-1.838;2023-01-26T13:08:59;10.75;;;2.38;;
55879;SDS011;41802;51.564;-1.838;2023-01-26T13:11:43;8.23;;;1.92;;
55879;SDS011;41802;51.564;-1.838;2023-01-26T13:19:56;9.68;;;1.90;;
55879;SDS011;41802;51.564;-1.838;2023-01-26T13:22:38;11.85;;;2.22;;
55879;SDS011;41802;51.564;-1.838;2023-01-26T13:25:11;10.18;;;1.60;;
55879;SDS011;41802;51.564;-1.838;2023-01-26T13:27:40;7.85;;;1.52;;
55879;SDS011;41802;51.564;-1.838;2023-01-26T13:33:01;8.15;;;1.33;;
55879;SDS011;41802;51.564;-1.838;2023-01-26T13:35:31;5.35;;;1.00;;
55879;SDS011;41802;51.564;-1.838;2023-01-26T13:38:01;11.90;;;1.80;;
55879;SDS011;41802;51.564;-1.838;2023-01-26T13:40:32;8.75;;;1.60;;
55879;SDS011;41802;51.564;-1.838;2023-01-26T13:43:02;11.73;;;1.40;;
55879;SDS011;41802;51.564;-1.838;2023-01-26T13:45:54;7.15;;;1.25;;
55879;SDS011;41802;51.564;-1.838;2023-01-26T13:48:29;8.10;;;1.20;;
55879;SDS011;41802;51.564;-1.838;2023-01-26T13:51:01;9.65;;;1.25;;
55879;SDS011;41802;51.564;-1.838;2023-01-26T13:53:33;10.18;;;1.40;;
55879;SDS011;41802;51.564;-1.838;2023-01-26T13:56:02;8.23;;;0.90;;
55879;SDS011;41802;51.564;-1.838;2023-01-26T13:58:32;6.78;;;1.35;;
55879;SDS011;41802;51.564;-1.838;2023-01-26T14:01:02;6.80;;;1.25;;
55879;SDS011;41802;51.564;-1.838;2023-01-26T14:03:30;7.03;;;1.38;;
55879;SDS011;41802;51.564;-1.838;2023-01-26T14:05:59;9.30;;;1.63;;
55879;SDS011;41802;51.564;-1.838;2023-01-26T14:08:31;9.17;;;1.93;;
55879;SDS011;41802;51.564;-1.838;2023-01-26T14:11:00;9.27;;;1.80;;
55879;SDS011;41802;51.564;-1.838;2023-01-26T14:13:30;9.10;;;1.63;;
55879;SDS011;41802;51.564;-1.838;2023-01-26T14:15:59;9.05;;;1.70;;
55879;SDS011;41802;51.564;-1.838;2023-01-26T14:18:27;8.20;;;1.92;;
55879;SDS011;41802;51.564;-1.838;2023-01-26T14:20:58;7.17;;;1.33;;
55879;SDS011;41802;51.564;-1.838;2023-01-26T14:23:27;10.10;;;2.15;;
55879;SDS011;41802;51.564;-1.838;2023-01-26T14:25:57;11.05;;;1.63;;
55879;SDS011;41802;51.564;-1.838;2023-01-26T14:28:27;9.52;;;1.70;;
55879;SDS011;41802;51.564;-1.838;2023-01-26T14:30:57;9.45;;;1.45;;
55879;SDS011;41802;51.564;-1.838;2023-01-26T14:33:30;10.87;;;1.50;;
55879;SDS011;41802;51.564;-1.838;2023-01-26T14:35:58;8.90;;;1.20;;
55879;SDS011;41802;51.564;-1.838;2023-01-26T14:38:26;9.88;;;0.98;;
55879;SDS011;41802;51.564;-1.838;2023-01-26T14:40:55;5.72;;;0.75;;
55879;SDS011;41802;51.564;-1.838;2023-01-26T14:43:26;8.90;;;1.00;;
55879;SDS011;41802;51.564;-1.838;2023-01-26T14:45:54;7.50;;;1.10;;
55879;SDS011;41802;51.564;-1.838;2023-01-26T14:48:25;6.40;;;1.08;;
55879;SDS011;41802;51.564;-1.838;2023-01-26T14:50:55;9.07;;;1.00;;
55879;SDS011;41802;51.564;-1.838;2023-01-26T14:53:23;10.63;;;1.83;;
55879;SDS011;41802;51.564;-1.838;2023-01-26T14:55:52;9.25;;;1.58;;